Time;durP1;ratioP1;P1;durP2;ratioP2;P2;SDS_P1;SDS_P2;PMS_P1;PMS_P2;Temp;Humidity;BMP_temperature;BMP_pressure;BME280_temperature;BME280_humidity;BME280_pressure;Samples;Min_cycle;Max_cycle;Signal;HPM_P1;HPM_P2
2023/05/02 00:00:29;;;;;;;26.80;20.67;;;;;;;10.76;96.41;101800.44;5326545;28;20023;-66
2023/05/02 00:03:01;;;;;;;;;;;;;;;10.83;96.45;101807.41;5325755;28;20032;-68
2023/05/02 00:05:33;;;;;;;26.65;21.45;;;;;;;10.77;96.99;101816.09;5326725;28;19915;-67
2023/05/02 00:08:04;;;;;;;27.40;21.23;;;;;;;10.94;96.71;101812.66;5326140;28;20481;-67
2023/05/02 00:10:36;;;;;;;27.37;20.80;;;;;;;11.03;96.13;101814.41;5326303;28;20032;-68
2023/05/02 00:13:07;;;;;;;29.07;21.93;;;;;;;10.90;96.40;101824.81;5324301;28;20036;-69
2023/05/02 00:15:38;;;;;;;28.97;22.60;;;;;;;10.87;96.46;101821.34;5326290;28;20529;-68
2023/05/02 00:18:10;;;;;;;29.43;21.77;;;;;;;10.89;96.50;101825.69;5324961;28;20030;-67
2023/05/02 00:20:42;;;;;;;30.03;23.00;;;;;;;10.88;96.54;101828.28;5326156;28;20059;-67
2023/05/02 00:23:13;;;;;;;25.27;20.80;;;;;;;10.89;96.61;101828.28;5326242;28;20032;-67
2023/05/02 00:25:45;;;;;;;27.90;21.40;;;;;;;10.88;96.73;101831.78;5325801;28;20486;-68
2023/05/02 00:28:16;;;;;;;27.93;21.77;;;;;;;10.89;97.00;101830.91;5326249;28;20490;-67
2023/05/02 00:30:47;;;;;;;32.73;24.50;;;;;;;10.82;97.37;101842.19;5325953;28;20039;-67
2023/05/02 00:33:19;;;;;;;29.77;22.90;;;;;;;10.83;97.32;101838.69;5326205;28;20023;-67
2023/05/02 00:35:51;;;;;;;27.03;22.00;;;;;;;10.85;97.31;101837.00;5325674;28;20035;-68
2023/05/02 00:38:22;;;;;;;29.40;23.13;;;;;;;10.82;97.19;101842.19;5325974;28;20424;-66
2023/05/02 00:40:53;;;;;;;29.97;23.20;;;;;;;10.79;97.86;101841.28;5325601;28;20034;-68
2023/05/02 00:43:29;;;;;;;28.50;22.73;;;;;;;10.77;98.15;101841.31;5324083;28;20035;-67
2023/05/02 00:46:00;;;;;;;28.75;22.42;;;;;;;10.86;98.07;101843.06;5324832;28;20054;-67
2023/05/02 00:48:32;;;;;;;27.73;23.00;;;;;;;10.74;98.27;101844.78;5326501;28;20032;-68
2023/05/02 00:51:04;;;;;;;31.00;22.87;;;;;;;10.76;98.19;101850.00;5327265;28;20039;-68
2023/05/02 00:53:35;;;;;;;29.95;23.95;;;;;;;10.71;99.07;101849.97;5327620;28;20031;-69
2023/05/02 00:56:08;;;;;;;27.60;22.10;;;;;;;10.76;99.04;101847.38;5327502;28;20039;-68
2023/05/02 00:58:40;;;;;;;27.65;20.17;;;;;;;10.63;98.12;101843.00;5327460;28;20470;-67
2023/05/02 01:01:38;;;;;;;28.30;19.20;;;;;;;10.63;98.30;101851.69;5327546;28;20027;-66
2023/05/02 01:04:27;;;;;;;24.33;19.38;;;;;;;10.57;98.45;101852.50;5326793;28;20016;-67
2023/05/02 01:07:23;;;;;;;22.63;18.45;;;;;;;10.51;98.80;101849.00;5325235;28;20031;-68
2023/05/02 01:10:32;;;;;;;22.90;18.35;;;;;;;10.51;99.18;101849.91;5325597;28;20059;-68
2023/05/02 01:13:27;;;;;;;23.92;18.90;;;;;;;10.46;99.32;101848.13;5325427;28;20375;-68
2023/05/02 01:16:01;;;;;;;24.63;18.05;;;;;;;10.37;99.34;101849.84;5325465;28;20051;-67
2023/05/02 01:18:37;;;;;;;21.88;17.33;;;;;;;10.37;99.47;101848.97;5325523;28;20090;-67
2023/05/02 01:21:10;;;;;;;21.02;17.35;;;;;;;10.31;99.72;101847.16;5325346;28;20031;-69
2023/05/02 01:24:01;;;;;;;22.02;17.25;;;;;;;10.27;100.00;101849.72;5325322;28;20032;-68
2023/05/02 01:27:04;;;;;;;20.77;15.48;;;;;;;10.19;99.55;101853.19;5325530;28;20506;-67
2023/05/02 01:29:38;;;;;;;16.33;13.40;;;;;;;10.09;98.94;101853.97;5325420;28;20111;-68
2023/05/02 01:32:13;;;;;;;15.32;12.25;;;;;;;9.93;98.92;101852.13;5325364;28;20139;-68
2023/05/02 01:34:47;;;;;;;17.35;12.10;;;;;;;9.81;99.54;101853.78;5325415;28;20036;-68
2023/05/02 01:37:21;;;;;;;15.25;11.80;;;;;;;9.74;99.89;101853.72;5325347;28;20036;-68
2023/05/02 01:39:55;;;;;;;16.85;12.88;;;;;;;9.73;100.00;101844.19;5325311;28;20027;-68
2023/05/02 01:42:28;;;;;;;18.67;12.15;;;;;;;9.73;100.00;101862.41;5324316;28;20036;-68
2023/05/02 01:45:03;;;;;;;15.63;11.13;;;;;;;9.70;100.00;101852.81;5323662;28;20035;-68
2023/05/02 01:47:36;;;;;;;20.55;12.45;;;;;;;9.66;100.00;101858.88;5323871;28;20114;-67
2023/05/02 01:50:10;;;;;;;17.25;12.77;;;;;;;9.62;100.00;101863.16;5323853;28;20122;-69
2023/05/02 01:52:43;;;;;;;14.50;11.18;;;;;;;9.67;100.00;101864.06;5324876;28;20036;-68
2023/05/02 01:55:16;;;;;;;15.60;12.38;;;;;;;9.71;100.00;101867.59;5324007;28;20471;-68
2023/05/02 01:57:49;;;;;;;;;;;;;;;9.81;100.00;101869.41;5327650;28;20023;-67
2023/05/02 02:00:22;;;;;;;17.35;12.98;;;;;;;9.68;100.00;101871.03;5328793;28;19912;-67
2023/05/02 02:02:55;;;;;;;17.80;11.68;;;;;;;9.77;100.00;101882.38;5328644;28;20088;-67
2023/05/02 02:05:27;;;;;;;20.67;12.50;;;;;;;9.80;100.00;101880.66;5328568;28;20027;-68
2023/05/02 02:07:58;;;;;;;17.80;11.87;;;;;;;9.86;100.00;101885.06;5328954;28;20394;-68
2023/05/02 02:10:35;;;;;;;19.27;12.60;;;;;;;9.82;100.00;101881.56;5327689;28;20031;-68
2023/05/02 02:13:24;;;;;;;17.38;12.55;;;;;;;9.79;100.00;101902.38;5328489;28;20032;-70
2023/05/02 02:16:00;;;;;;;18.75;14.07;;;;;;;9.72;100.00;101894.50;5328505;28;20048;-67
2023/05/02 02:18:35;;;;;;;20.33;13.63;;;;;;;9.74;100.00;101887.56;5328384;28;20031;-68
2023/05/02 02:21:10;;;;;;;20.80;13.60;;;;;;;9.79;100.00;101902.38;5328325;28;20470;-68
2023/05/02 02:23:43;;;;;;;18.55;13.10;;;;;;;9.80;100.00;101905.84;5328569;28;20024;-68
2023/05/02 02:26:19;;;;;;;23.77;14.43;;;;;;;9.72;100.00;101899.72;5328115;28;20024;-68
2023/05/02 02:28:51;;;;;;;20.70;14.57;;;;;;;9.67;100.00;101902.28;5328375;28;20035;-69
2023/05/02 02:31:24;;;;;;;15.60;13.17;;;;;;;9.67;100.00;101900.53;5328828;28;20080;-68
2023/05/02 02:33:55;;;;;;;19.75;15.07;;;;;;;9.66;100.00;101903.16;5328352;28;20038;-67
2023/05/02 02:36:55;;;;;;;16.77;14.27;;;;;;;9.68;100.00;101904.88;5328073;28;20032;-67
2023/05/02 02:39:36;;;;;;;18.60;12.80;;;;;;;9.67;100.00;101907.47;5328310;28;20137;-68
2023/05/02 02:42:28;;;;;;;19.50;14.15;;;;;;;9.66;100.00;101916.16;5327990;28;20528;-70
2023/05/02 02:45:24;;;;;;;17.05;14.45;;;;;;;9.76;100.00;101917.13;5327894;28;20051;-68
2023/05/02 02:48:10;;;;;;;18.67;14.52;;;;;;;9.79;100.00;101915.41;5328456;28;20024;-67
2023/05/02 02:50:53;;;;;;;18.15;15.00;;;;;;;9.78;100.00;101918.84;5328085;28;20027;-67
2023/05/02 02:53:26;;;;;;;;;;;;;;;9.80;100.00;101917.13;5328459;28;20028;-67
2023/05/02 02:56:05;;;;;;;17.42;13.45;;;;;;;9.73;100.00;101922.28;5328292;28;19960;-70
2023/05/02 02:59:01;;;;;;;17.35;13.07;;;;;;;9.78;100.00;101929.28;5328043;28;20480;-69
2023/05/02 03:01:35;;;;;;;14.98;12.48;;;;;;;9.79;100.00;101927.56;5328018;28;20374;-69
2023/05/02 03:04:10;;;;;;;16.63;12.55;;;;;;;9.77;100.00;101929.25;5327830;28;20036;-68
2023/05/02 03:06:42;;;;;;;17.98;13.30;;;;;;;9.78;100.00;101933.63;5327587;28;20027;-69
2023/05/02 03:09:17;;;;;;;16.60;12.53;;;;;;;9.81;100.00;101937.13;5326727;28;20031;-68
2023/05/02 03:11:48;;;;;;;16.52;12.30;;;;;;;9.82;100.00;101931.06;5327626;28;20035;-69
2023/05/02 03:14:20;;;;;;;18.40;12.57;;;;;;;9.89;100.00;101947.59;5327159;28;20031;-69
2023/05/02 03:16:51;;;;;;;16.83;12.50;;;;;;;9.89;100.00;101944.13;5325880;28;20405;-67
2023/05/02 03:19:23;;;;;;;17.27;13.10;;;;;;;9.88;100.00;101948.44;5327562;28;20391;-67
2023/05/02 03:21:54;;;;;;;23.23;13.57;;;;;;;9.87;100.00;101951.94;5326185;28;20027;-67
2023/05/02 03:24:28;;;;;;;20.27;12.57;;;;;;;9.81;100.00;101951.88;5327287;28;20031;-67
2023/05/02 03:27:00;;;;;;;19.40;12.55;;;;;;;9.83;100.00;101951.00;5325994;28;20034;-66
2023/05/02 03:29:31;;;;;;;17.37;12.80;;;;;;;9.89;100.00;101959.75;5325884;28;20024;-68
2023/05/02 03:32:02;;;;;;;16.10;12.70;;;;;;;9.84;100.00;101963.19;5326821;28;20474;-67
2023/05/02 03:34:34;;;;;;;14.67;11.50;;;;;;;9.86;100.00;101958.84;5327193;28;20481;-68
2023/05/02 03:37:06;;;;;;;15.67;12.97;;;;;;;9.83;100.00;101965.78;5327084;28;20463;-68
2023/05/02 03:39:37;;;;;;;16.03;12.00;;;;;;;9.82;100.00;101964.91;5327060;28;20474;-68
2023/05/02 03:42:08;;;;;;;15.60;11.63;;;;;;;9.80;100.00;101952.72;5327024;28;20371;-68
2023/05/02 03:44:40;;;;;;;15.93;12.17;;;;;;;9.78;100.00;101957.91;5326576;28;20035;-69
2023/05/02 03:47:12;;;;;;;16.57;11.87;;;;;;;9.77;100.00;101965.72;5326689;28;20077;-69
2023/05/02 03:49:43;;;;;;;16.95;11.43;;;;;;;9.79;100.00;101959.69;5325688;28;20028;-68
2023/05/02 03:52:15;;;;;;;19.27;11.43;;;;;;;9.84;100.00;101968.41;5326853;28;20028;-69
2023/05/02 03:54:46;;;;;;;16.83;10.87;;;;;;;9.86;100.00;101977.09;5326783;28;20036;-68
2023/05/02 03:57:18;;;;;;;18.33;10.43;;;;;;;9.82;100.00;101975.34;5326815;28;20493;-67
2023/05/02 03:59:49;;;;;;;13.57;8.77;;;;;;;9.79;100.00;101977.91;5325165;28;20032;-68
2023/05/02 04:02:20;;;;;;;17.33;8.83;;;;;;;9.73;100.00;101983.03;5326312;28;20023;-67
2023/05/02 04:04:52;;;;;;;15.17;7.97;;;;;;;9.72;100.00;101983.88;5326671;28;20027;-67
2023/05/02 04:07:24;;;;;;;15.40;7.73;;;;;;;9.68;100.00;101995.16;5325359;28;20168;-68
2023/05/02 04:09:56;;;;;;;12.68;7.80;;;;;;;9.69;100.00;101996.88;5325274;28;20112;-68
2023/05/02 04:12:27;;;;;;;11.83;7.93;;;;;;;9.64;100.00;101991.66;5342458;27;20085;-68
2023/05/02 04:14:58;;;;;;;14.43;7.60;;;;;;;9.68;100.00;101992.53;5326519;27;20032;-67
2023/05/02 04:17:30;;;;;;;16.63;7.47;;;;;;;9.62;100.00;102000.28;5326704;28;20142;-68
2023/05/02 04:20:02;;;;;;;15.13;7.90;;;;;;;9.65;100.00;102005.53;5327572;28;20539;-66
2023/05/02 04:22:33;;;;;;;15.43;7.22;;;;;;;9.60;100.00;102000.28;5327942;27;20402;-67
2023/05/02 04:25:06;;;;;;;17.70;7.27;;;;;;;9.67;100.00;102006.41;5327162;28;20509;-68
2023/05/02 04:27:38;;;;;;;17.58;6.68;;;;;;;9.66;100.00;102021.16;5325806;28;20028;-69
2023/05/02 04:30:09;;;;;;;13.97;5.57;;;;;;;9.68;100.00;102029.88;5326003;28;20485;-67
2023/05/02 04:32:41;;;;;;;9.90;4.97;;;;;;;9.64;100.00;102030.69;5326254;28;20114;-68
2023/05/02 04:35:14;;;;;;;8.90;4.83;;;;;;;9.63;98.19;102022.88;5324789;28;20032;-68
2023/05/02 04:37:45;;;;;;;9.75;3.20;;;;;;;9.53;95.32;102039.22;5325818;28;20043;-67
2023/05/02 04:40:17;;;;;;;8.93;2.87;;;;;;;9.42;93.56;102046.94;5325755;28;20111;-68
2023/05/02 04:42:48;;;;;;;9.17;2.77;;;;;;;9.39;92.62;102052.09;5324194;28;20031;-68
2023/05/02 04:45:19;;;;;;;7.47;2.70;;;;;;;9.37;91.60;102052.06;5324682;28;20028;-67
2023/05/02 04:47:51;;;;;;;14.03;3.50;;;;;;;9.33;91.38;102050.28;5325199;28;20484;-67
2023/05/02 04:50:22;;;;;;;7.03;2.50;;;;;;;9.36;90.81;102063.31;5324172;28;20032;-67
2023/05/02 04:52:54;;;;;;;4.97;2.23;;;;;;;9.42;89.35;102068.63;5324574;28;20459;-67
2023/05/02 04:55:25;;;;;;;9.53;2.30;;;;;;;9.39;86.50;102078.97;5325962;28;20412;-67
2023/05/02 04:57:57;;;;;;;8.57;2.53;;;;;;;9.34;86.86;102074.56;5324302;28;20055;-67
2023/05/02 05:00:28;;;;;;;7.00;2.37;;;;;;;9.34;87.00;102077.16;5325666;28;20040;-66
2023/05/02 05:02:59;;;;;;;6.43;2.87;;;;;;;9.28;87.25;102081.44;5324492;28;20066;-67
2023/05/02 05:05:31;;;;;;;5.93;1.93;;;;;;;9.19;86.67;102077.84;5324074;28;20044;-67
2023/05/02 05:08:03;;;;;;;8.85;2.60;;;;;;;9.17;86.15;102093.41;5324182;28;20534;-66
2023/05/02 05:10:34;;;;;;;7.47;2.30;;;;;;;9.18;85.99;102099.53;5325694;28;20110;-66
2023/05/02 05:13:06;;;;;;;8.87;2.60;;;;;;;9.11;85.78;102102.03;5324207;28;20032;-67
2023/05/02 05:15:37;;;;;;;7.50;2.27;;;;;;;9.13;85.86;102105.53;5306800;28;20032;-68
2023/05/02 05:18:09;;;;;;;11.80;2.37;;;;;;;9.13;86.06;102112.47;5325677;28;20056;-68
2023/05/02 05:20:40;;;;;;;5.90;2.23;;;;;;;9.14;86.24;102108.97;5325357;28;20070;-68
2023/05/02 05:23:12;;;;;;;6.40;2.03;;;;;;;9.06;85.54;102118.41;5325364;28;20472;-67
2023/05/02 05:25:43;;;;;;;6.30;2.20;;;;;;;9.10;85.58;102122.81;5325004;28;20024;-67
2023/05/02 05:28:14;;;;;;;5.23;2.10;;;;;;;9.07;85.51;102121.03;5325266;28;20042;-66
2023/05/02 05:30:46;;;;;;;5.70;2.20;;;;;;;9.17;85.29;102123.78;5325334;28;20031;-67
2023/05/02 05:33:17;;;;;;;4.87;2.07;;;;;;;9.20;85.07;102124.69;5327995;28;20023;-67
2023/05/02 05:35:49;;;;;;;8.77;2.23;;;;;;;9.36;83.35;102123.19;5329328;28;20040;-68
2023/05/02 05:38:20;;;;;;;6.00;2.50;;;;;;;9.41;81.23;102123.25;5329350;28;20024;-67
2023/05/02 05:40:51;;;;;;;6.97;2.40;;;;;;;9.39;80.77;102135.38;5327843;28;20027;-67
2023/05/02 05:43:23;;;;;;;10.07;2.70;;;;;;;9.36;81.50;102138.78;5328943;28;20202;-66
2023/05/02 05:45:55;;;;;;;6.47;2.00;;;;;;;9.39;80.94;102138.84;5329444;28;20070;-68
2023/05/02 05:48:26;;;;;;;5.60;1.90;;;;;;;9.32;81.14;102139.59;5327957;28;20083;-66
2023/05/02 05:50:57;;;;;;;5.40;2.00;;;;;;;9.35;80.72;102139.63;5329172;28;20065;-67
2023/05/02 05:53:29;;;;;;;5.63;2.30;;;;;;;9.33;81.41;102138.75;5329107;28;20500;-68
2023/05/02 05:56:11;;;;;;;5.30;1.90;;;;;;;9.35;81.02;102141.38;5327850;28;20043;-67
2023/05/02 05:58:43;;;;;;;6.78;3.15;;;;;;;9.37;80.39;102143.16;5328950;28;20028;-68
2023/05/02 06:01:14;;;;;;;6.50;2.40;;;;;;;9.38;79.18;102144.03;5327735;28;20043;-67
2023/05/02 06:03:45;;;;;;;5.63;2.23;;;;;;;9.45;79.26;102156.25;5328893;28;20031;-66
2023/05/02 06:06:17;;;;;;;8.20;2.00;;;;;;;9.44;78.98;102163.19;5328435;28;20082;-68
2023/05/02 06:08:48;;;;;;;6.77;2.33;;;;;;;9.52;77.89;102168.50;5327393;28;20035;-67
2023/05/02 06:11:19;;;;;;;7.87;2.53;;;;;;;9.61;77.25;102165.16;5327262;28;20042;-67
2023/05/02 06:13:52;;;;;;;7.83;3.17;;;;;;;9.78;76.51;102165.38;5326996;28;20035;-67
2023/05/02 06:16:23;;;;;;;10.93;2.53;;;;;;;9.88;76.04;102167.22;5328434;27;20462;-68
2023/05/02 06:18:55;;;;;;;10.43;3.10;;;;;;;9.90;74.98;102180.28;5328643;28;20047;-67
2023/05/02 06:21:26;;;;;;;6.67;2.17;;;;;;;10.01;75.65;102183.88;5328595;28;20063;-67
2023/05/02 06:23:57;;;;;;;6.07;2.13;;;;;;;10.05;75.58;102175.25;5328591;28;20114;-66
2023/05/02 06:26:29;;;;;;;7.60;2.43;;;;;;;10.05;75.27;102185.69;5327064;28;20035;-66
2023/05/02 06:29:01;;;;;;;6.03;1.90;;;;;;;10.14;75.21;102191.00;5328025;28;20032;-67
2023/05/02 06:31:32;;;;;;;10.77;2.73;;;;;;;10.15;75.11;102189.28;5328406;28;20111;-66
2023/05/02 06:34:04;;;;;;;8.00;3.47;;;;;;;10.08;74.43;102190.94;5328332;28;20028;-67
2023/05/02 06:36:35;;;;;;;10.23;2.23;;;;;;;10.08;73.98;102195.25;5327972;28;20108;-67
2023/05/02 06:39:07;;;;;;;13.40;2.93;;;;;;;10.01;74.21;102205.63;5328170;28;20027;-67
2023/05/02 06:41:39;;;;;;;11.23;3.03;;;;;;;9.93;74.88;102216.78;5328077;28;20036;-68
2023/05/02 06:44:10;;;;;;;8.17;2.57;;;;;;;10.02;76.03;102217.78;5327519;28;20450;-68
2023/05/02 06:46:42;;;;;;;9.53;3.30;;;;;;;10.09;76.41;102221.31;5326577;28;20035;-67
2023/05/02 06:49:13;;;;;;;10.30;2.43;;;;;;;10.05;76.04;102229.97;5326628;28;20031;-66
2023/05/02 06:51:45;;;;;;;9.97;3.23;;;;;;;10.10;76.71;102236.13;5327858;28;20038;-66
2023/05/02 06:54:16;;;;;;;8.53;2.53;;;;;;;10.21;76.27;102236.25;5327741;28;20558;-66
2023/05/02 06:56:47;;;;;;;13.03;3.83;;;;;;;10.36;75.68;102232.97;5326065;28;20055;-67
2023/05/02 06:59:19;;;;;;;10.70;2.67;;;;;;;10.46;74.66;102245.25;5327344;28;20027;-67
2023/05/02 07:01:50;;;;;;;11.17;3.33;;;;;;;10.39;74.06;102246.91;5327720;28;20028;-67
2023/05/02 07:04:21;;;;;;;10.57;3.03;;;;;;;10.48;73.91;102242.66;5327562;28;20058;-70
2023/05/02 07:06:53;;;;;;;9.70;2.80;;;;;;;10.56;73.52;102251.44;5327423;27;20098;-67
2023/05/02 07:09:24;;;;;;;11.80;3.70;;;;;;;10.67;72.99;102239.38;5325913;28;20027;-67
2023/05/02 07:11:55;;;;;;;10.83;2.93;;;;;;;10.77;72.36;102251.69;5327109;28;20027;-67
2023/05/02 07:14:27;;;;;;;15.13;3.90;;;;;;;10.92;71.46;102253.53;5326985;28;20379;-68
2023/05/02 07:16:58;;;;;;;9.23;2.93;;;;;;;10.89;71.31;102257.88;5325642;28;20547;-67
2023/05/02 07:19:30;;;;;;;14.00;2.97;;;;;;;11.03;70.25;102258.88;5327190;28;20390;-67
2023/05/02 07:22:01;;;;;;;9.00;3.00;;;;;;;11.32;69.64;102271.31;5327255;28;20031;-67
2023/05/02 07:24:32;;;;;;;12.23;3.30;;;;;;;11.33;69.82;102273.03;5325829;28;20413;-67
2023/05/02 07:27:04;;;;;;;12.97;3.13;;;;;;;11.44;68.72;102280.94;5327184;27;20466;-67
2023/05/02 07:29:35;;;;;;;15.77;3.23;;;;;;;11.52;68.46;102284.50;5327187;28;20030;-68
2023/05/02 07:32:08;;;;;;;9.73;2.80;;;;;;;11.49;67.27;102289.69;5327453;28;20534;-69
2023/05/02 07:34:39;;;;;;;;;;;;;;;11.61;67.51;102295.00;5326096;28;20466;-67
2023/05/02 07:37:11;;;;;;;10.65;2.88;;;;;;;11.23;67.70;102284.28;5325534;28;19919;-67
2023/05/02 07:39:42;;;;;;;8.70;2.93;;;;;;;11.01;67.79;102286.69;5327159;28;20462;-67
2023/05/02 07:42:14;;;;;;;11.00;3.70;;;;;;;10.84;67.46;102290.88;5326874;28;20085;-67
2023/05/02 07:44:45;;;;;;;9.83;3.50;;;;;;;11.07;68.34;102291.94;5326553;28;20070;-67
2023/05/02 07:47:17;;;;;;;13.87;3.73;;;;;;;11.03;68.07;102294.50;5326661;28;20034;-67
2023/05/02 07:49:52;;;;;;;8.37;3.20;;;;;;;11.21;68.95;102297.31;5326591;28;20031;-66
2023/05/02 07:52:25;;;;;;;14.00;3.83;;;;;;;11.56;68.18;102301.94;5326833;28;20028;-68
2023/05/02 07:54:56;;;;;;;7.50;3.33;;;;;;;11.39;66.92;102309.63;5326788;28;20492;-67
2023/05/02 07:57:27;;;;;;;10.43;3.83;;;;;;;11.25;68.36;102301.69;5325442;28;20121;-67
2023/05/02 07:59:59;;;;;;;8.50;3.20;;;;;;;11.23;69.47;102306.00;5326511;28;20027;-67
2023/05/02 08:02:30;;;;;;;12.23;4.07;;;;;;;11.19;70.08;102296.41;5326493;28;20028;-67
2023/05/02 08:05:02;;;;;;;24.90;4.87;;;;;;;10.92;70.59;102313.56;5325199;28;20050;-67
2023/05/02 08:07:34;;;;;;;9.80;3.67;;;;;;;10.83;69.09;102316.06;5307989;28;20027;-67
2023/05/02 08:10:06;;;;;;;9.77;3.40;;;;;;;10.79;66.65;102316.91;5326308;28;20039;-67
2023/05/02 08:12:39;;;;;;;14.18;3.55;;;;;;;10.69;67.33;102328.06;5358319;27;20043;-67
2023/05/02 08:15:12;;;;;;;18.33;4.72;;;;;;;10.67;67.69;102329.78;5326021;28;20107;-68
2023/05/02 08:17:44;;;;;;;7.88;3.25;;;;;;;10.67;68.30;102329.78;5324881;28;20047;-67
2023/05/02 08:20:15;;;;;;;11.20;4.17;;;;;;;10.55;68.01;102327.94;5326421;28;20036;-68
2023/05/02 08:22:47;;;;;;;16.33;3.60;;;;;;;10.29;67.27;102331.03;5326346;28;20036;-68
2023/05/02 08:25:18;;;;;;;11.93;3.50;;;;;;;10.38;67.19;102343.34;5307885;28;20123;-67
2023/05/02 08:27:49;;;;;;;15.00;3.50;;;;;;;10.31;66.32;102342.34;5325743;28;20115;-67
2023/05/02 08:30:21;;;;;;;8.63;3.13;;;;;;;10.47;67.11;102347.81;5326170;28;20042;-68
2023/05/02 08:32:52;;;;;;;9.37;2.77;;;;;;;10.70;66.54;102345.47;5325625;28;20028;-68
2023/05/02 08:35:23;;;;;;;14.90;3.53;;;;;;;10.70;65.21;102351.56;5325605;28;20053;-68
2023/05/02 08:37:55;;;;;;;14.93;4.80;;;;;;;11.05;64.90;102356.31;5324665;28;20106;-67
2023/05/02 08:40:27;;;;;;;9.80;2.80;;;;;;;11.50;63.97;102352.38;5325803;28;20035;-67
2023/05/02 08:42:58;;;;;;;13.97;3.47;;;;;;;11.82;62.19;102359.59;5325679;28;20020;-68
2023/05/02 08:45:36;;;;;;;9.90;3.10;;;;;;;11.92;61.03;102368.41;5324905;28;20028;-68
2023/05/02 08:48:10;;;;;;;13.48;3.97;;;;;;;12.27;59.12;102367.75;5324618;28;20095;-70
2023/05/02 08:50:44;;;;;;;9.95;3.28;;;;;;;12.67;57.46;102367.06;5325643;28;20028;-66
2023/05/02 08:53:16;;;;;;;9.15;3.15;;;;;;;12.69;57.84;102371.44;5324179;28;20035;-67
2023/05/02 08:55:48;;;;;;;10.00;3.97;;;;;;;12.67;55.47;102375.81;5325103;28;20040;-67
2023/05/02 08:58:19;;;;;;;8.47;3.03;;;;;;;13.12;55.28;102368.94;5324204;28;20027;-68
2023/05/02 09:00:52;;;;;;;8.90;3.27;;;;;;;13.17;54.38;102378.53;5325030;28;20494;-67
2023/05/02 09:03:31;;;;;;;8.35;2.95;;;;;;;13.13;54.50;102386.38;5325508;28;20062;-66
2023/05/02 09:06:14;;;;;;;10.10;2.97;;;;;;;13.60;53.51;102376.00;5323980;28;20080;-66
2023/05/02 09:08:48;;;;;;;9.35;2.42;;;;;;;12.73;52.41;102388.88;5329048;28;20031;-68
2023/05/02 09:11:20;;;;;;;10.75;3.55;;;;;;;12.97;52.76;102386.38;5329585;28;20031;-66
2023/05/02 09:13:51;;;;;;;9.88;2.50;;;;;;;12.92;53.06;102396.81;5329369;28;20399;-67
2023/05/02 09:16:25;;;;;;;10.33;3.00;;;;;;;13.21;53.57;102396.88;5329749;28;20038;-67
2023/05/02 09:18:58;;;;;;;10.05;3.78;;;;;;;13.64;51.87;102389.13;5329231;28;20051;-68
2023/05/02 09:21:36;;;;;;;10.13;3.85;;;;;;;13.69;50.90;102389.13;5329750;27;20044;-66
2023/05/02 09:24:19;;;;;;;8.57;2.38;;;;;;;14.12;49.64;102390.81;5328316;28;20027;-72
2023/05/02 09:27:01;;;;;;;9.95;3.17;;;;;;;14.11;50.21;102408.31;5329346;28;20366;-67
2023/05/02 09:29:37;;;;;;;7.60;2.60;;;;;;;14.10;46.71;102403.06;5329706;28;20106;-67
2023/05/02 09:32:09;;;;;;;7.03;2.45;;;;;;;14.17;48.01;102392.56;5329500;28;20478;-67
2023/05/02 09:35:06;;;;;;;5.33;2.33;;;;;;;14.36;45.95;102401.25;5329391;28;20028;-67
2023/05/02 09:37:38;;;;;;;10.85;3.30;;;;;;;14.17;47.67;102402.19;5328090;28;20047;-68
2023/05/02 09:40:10;;;;;;;8.87;3.17;;;;;;;13.55;48.16;102406.56;5328137;28;20408;-68
2023/05/02 09:42:41;;;;;;;13.82;3.30;;;;;;;13.22;50.02;102416.97;5329085;28;20039;-68
2023/05/02 09:45:20;;;;;;;11.90;2.67;;;;;;;13.49;50.67;102421.44;5328727;28;20027;-67
2023/05/02 09:47:52;;;;;;;9.68;2.85;;;;;;;13.12;50.16;102423.94;5328447;28;20036;-68
2023/05/02 09:50:37;;;;;;;7.53;3.10;;;;;;;13.24;50.79;102423.09;5329004;28;20378;-67
2023/05/02 09:53:10;;;;;;;12.07;2.70;;;;;;;14.38;49.22;102424.88;5328934;28;20115;-68
2023/05/02 09:55:41;;;;;;;;;;;;;;;16.25;46.21;102432.53;5327903;28;20035;-67
2023/05/02 09:58:21;;;;;;;8.15;2.70;;;;;;;17.74;42.64;102426.19;5328890;28;20312;-68
2023/05/02 10:00:53;;;;;;;7.28;2.92;;;;;;;18.82;38.47;102416.25;5328953;28;20489;-66
2023/05/02 10:03:25;;;;;;;11.53;3.40;;;;;;;19.17;37.08;102410.22;5329040;28;20023;-68
2023/05/02 10:05:57;;;;;;;8.63;2.85;;;;;;;19.43;35.61;102428.13;5328781;28;20428;-66
2023/05/02 10:08:29;;;;;;;12.00;2.70;;;;;;;18.23;36.02;102426.22;5328656;28;20027;-68
2023/05/02 10:11:06;;;;;;;8.10;2.80;;;;;;;17.44;37.95;102418.75;5327523;28;20142;-67
2023/05/02 10:13:38;;;;;;;10.23;3.58;;;;;;;17.21;37.77;102420.84;5327591;28;20378;-68
2023/05/02 10:16:12;;;;;;;7.38;2.58;;;;;;;18.14;36.49;102421.09;5328906;28;20116;-67
2023/05/02 10:19:06;;;;;;;7.65;2.80;;;;;;;18.76;36.62;102427.84;5327922;28;20048;-67
2023/05/02 10:21:39;;;;;;;6.60;2.63;;;;;;;18.69;36.17;102431.50;5328657;28;20051;-68
2023/05/02 10:24:12;;;;;;;11.13;3.15;;;;;;;18.89;34.18;102420.56;5328901;28;20257;-67
2023/05/02 10:26:43;;;;;;;11.05;3.95;;;;;;;19.10;34.49;102414.78;5327419;28;20119;-68
2023/05/02 10:29:15;;;;;;;8.87;3.57;;;;;;;18.33;36.58;102424.25;5329593;28;20530;-67
2023/05/02 10:31:48;;;;;;;9.37;3.50;;;;;;;17.19;38.70;102439.31;5329194;28;20036;-67
2023/05/02 10:34:21;;;;;;;7.15;2.97;;;;;;;16.62;40.75;102444.41;5327794;28;20428;-66
2023/05/02 10:36:54;;;;;;;11.63;3.22;;;;;;;15.23;42.34;102441.19;5328983;28;20039;-67
2023/05/02 10:39:26;;;;;;;9.18;3.10;;;;;;;14.62;45.16;102436.19;5328526;28;20039;-68
2023/05/02 10:42:01;;;;;;;12.45;3.65;;;;;;;14.33;45.10;102437.09;5329771;28;20039;-67
2023/05/02 10:44:33;;;;;;;8.35;3.20;;;;;;;16.33;44.01;102438.56;5329320;27;20027;-66
2023/05/02 10:47:21;;;;;;;9.55;3.20;;;;;;;19.25;38.87;102436.47;5330069;28;20034;-67
2023/05/02 10:49:58;;;;;;;7.28;2.38;;;;;;;21.42;32.26;102449.16;5330943;28;20435;-67
2023/05/02 10:52:36;;;;;;;7.15;2.67;;;;;;;20.00;34.37;102434.69;5330966;28;20058;-68
2023/05/02 10:55:18;;;;;;;6.57;2.67;;;;;;;20.99;33.30;102445.19;5329507;28;20032;-68
2023/05/02 10:57:56;;;;;;;7.45;3.30;;;;;;;19.22;33.60;102445.34;5332627;28;20039;-67
2023/05/02 11:00:35;;;;;;;9.13;2.60;;;;;;;17.91;34.86;102440.00;5331947;28;20034;-66
2023/05/02 11:03:06;;;;;;;4.95;2.35;;;;;;;19.95;34.13;102446.31;5331237;28;20495;-67
2023/05/02 11:06:05;;;;;;;8.20;2.73;;;;;;;22.51;31.81;102443.75;5329856;28;20135;-67
2023/05/02 11:08:37;;;;;;;7.78;2.97;;;;;;;22.47;27.61;102453.59;5330804;28;20359;-68
2023/05/02 11:11:46;;;;;;;7.13;2.53;;;;;;;18.63;33.05;102452.72;5329312;28;20081;-69
2023/05/02 11:14:24;;;;;;;10.75;3.08;;;;;;;17.47;35.99;102458.25;5330747;28;20512;-66
2023/05/02 11:16:58;;;;;;;6.10;2.67;;;;;;;17.45;36.83;102456.50;5331435;28;20035;-65
2023/05/02 11:19:55;;;;;;;8.75;2.20;;;;;;;16.59;37.27;102445.31;5328690;27;20087;-66
2023/05/02 11:22:30;;;;;;;6.53;2.58;;;;;;;17.13;38.48;102455.22;5327998;28;20363;-68
2023/05/02 11:25:04;;;;;;;7.25;2.58;;;;;;;19.10;32.96;102449.13;5327543;28;20093;-66
2023/05/02 11:27:40;;;;;;;9.32;3.75;;;;;;;18.66;32.85;102447.41;5327192;28;20038;-67
2023/05/02 11:30:12;;;;;;;9.05;2.97;;;;;;;17.78;34.76;102449.84;5325127;28;20032;-67
2023/05/02 11:32:52;;;;;;;8.52;2.50;;;;;;;16.46;37.66;102455.09;5327732;28;20059;-68
2023/05/02 11:35:30;;;;;;;7.00;3.15;;;;;;;16.11;39.02;102447.56;5327154;28;20063;-67
2023/05/02 11:38:08;;;;;;;12.45;3.40;;;;;;;16.27;38.94;102446.53;5327106;28;20351;-67
2023/05/02 11:40:48;;;;;;;7.60;2.90;;;;;;;18.61;35.66;102452.75;5326950;28;20031;-67
2023/05/02 11:43:20;;;;;;;8.02;2.83;;;;;;;18.85;35.42;102442.63;5326996;28;20101;-67
2023/05/02 11:45:53;;;;;;;6.38;2.70;;;;;;;20.00;32.80;102447.06;5326367;28;20034;-68
2023/05/02 11:48:28;;;;;;;7.45;3.17;;;;;;;21.42;30.87;102456.25;5326827;28;20438;-68
2023/05/02 11:51:02;;;;;;;8.95;3.58;;;;;;;23.07;28.13;102458.47;5325425;28;20032;-66